sensor_id;sensor_type;location;lat;lon;timestamp;temperature;humidity
13332;DHT22;6735;51.456;12.626;2022-08-26T00:00:37;21.50;78.40
13332;DHT22;6735;51.456;12.626;2022-08-26T00:03:03;21.40;78.50
13332;DHT22;6735;51.456;12.626;2022-08-26T00:05:29;21.40;78.50
13332;DHT22;6735;51.456;12.626;2022-08-26T00:07:54;21.40;78.50
13332;DHT22;6735;51.456;12.626;2022-08-26T00:10:21;21.40;78.50
13332;DHT22;6735;51.456;12.626;2022-08-26T00:12:47;21.40;78.60
13332;DHT22;6735;51.456;12.626;2022-08-26T00:15:15;21.30;78.70
13332;DHT22;6735;51.456;12.626;2022-08-26T00:17:41;21.30;78.80
13332;DHT22;6735;51.456;12.626;2022-08-26T00:20:08;21.30;79.00
13332;DHT22;6735;51.456;12.626;2022-08-26T00:22:35;21.20;79.20
13332;DHT22;6735;51.456;12.626;2022-08-26T00:25:01;21.20;79.30
13332;DHT22;6735;51.456;12.626;2022-08-26T00:27:27;21.20;79.40
13332;DHT22;6735;51.456;12.626;2022-08-26T00:29:52;21.20;79.40
13332;DHT22;6735;51.456;12.626;2022-08-26T00:32:17;21.20;79.40
13332;DHT22;6735;51.456;12.626;2022-08-26T00:34:43;21.20;79.50
13332;DHT22;6735;51.456;12.626;2022-08-26T00:37:08;21.10;79.50
13332;DHT22;6735;51.456;12.626;2022-08-26T00:39:34;21.10;79.60
13332;DHT22;6735;51.456;12.626;2022-08-26T00:42:00;21.10;79.70
13332;DHT22;6735;51.456;12.626;2022-08-26T00:44:25;21.10;79.90
13332;DHT22;6735;51.456;12.626;2022-08-26T00:46:54;21.10;79.90
13332;DHT22;6735;51.456;12.626;2022-08-26T00:49:38;21.10;79.90
13332;DHT22;6735;51.456;12.626;2022-08-26T00:52:08;21.00;80.10
13332;DHT22;6735;51.456;12.626;2022-08-26T00:54:37;21.00;80.20
13332;DHT22;6735;51.456;12.626;2022-08-26T00:57:09;21.00;80.10
13332;DHT22;6735;51.456;12.626;2022-08-26T00:59:36;21.00;80.10
13332;DHT22;6735;51.456;12.626;2022-08-26T01:02:02;21.00;80.30
13332;DHT22;6735;51.456;12.626;2022-08-26T01:04:30;20.90;80.40
13332;DHT22;6735;51.456;12.626;2022-08-26T01:06:57;20.90;80.40
13332;DHT22;6735;51.456;12.626;2022-08-26T01:09:23;20.90;80.50
13332;DHT22;6735;51.456;12.626;2022-08-26T01:11:51;20.90;80.60
13332;DHT22;6735;51.456;12.626;2022-08-26T01:14:19;20.90;80.60
13332;DHT22;6735;51.456;12.626;2022-08-26T01:16:46;20.90;80.80
13332;DHT22;6735;51.456;12.626;2022-08-26T01:19:22;20.90;80.80
13332;DHT22;6735;51.456;12.626;2022-08-26T01:21:55;20.90;80.80
13332;DHT22;6735;51.456;12.626;2022-08-26T01:24:22;20.90;80.80
13332;DHT22;6735;51.456;12.626;2022-08-26T01:26:50;20.80;81.00
13332;DHT22;6735;51.456;12.626;2022-08-26T01:29:17;20.80;81.00
13332;DHT22;6735;51.456;12.626;2022-08-26T01:31:51;20.80;81.00
13332;DHT22;6735;51.456;12.626;2022-08-26T01:34:22;20.80;81.00
13332;DHT22;6735;51.456;12.626;2022-08-26T01:36:51;20.80;81.10
13332;DHT22;6735;51.456;12.626;2022-08-26T01:39:18;20.80;81.10
13332;DHT22;6735;51.456;12.626;2022-08-26T01:41:45;20.80;81.20
13332;DHT22;6735;51.456;12.626;2022-08-26T01:44:15;20.80;81.20
13332;DHT22;6735;51.456;12.626;2022-08-26T01:46:42;20.80;81.30
13332;DHT22;6735;51.456;12.626;2022-08-26T01:49:09;20.80;81.40
13332;DHT22;6735;51.456;12.626;2022-08-26T01:51:36;20.80;81.50
13332;DHT22;6735;51.456;12.626;2022-08-26T01:54:04;20.80;81.70
13332;DHT22;6735;51.456;12.626;2022-08-26T01:56:30;20.80;81.60
13332;DHT22;6735;51.456;12.626;2022-08-26T01:58:58;20.80;81.70
13332;DHT22;6735;51.456;12.626;2022-08-26T02:01:25;20.80;81.70
13332;DHT22;6735;51.456;12.626;2022-08-26T02:06:49;20.80;81.80
13332;DHT22;6735;51.456;12.626;2022-08-26T02:09:16;20.70;81.80
13332;DHT22;6735;51.456;12.626;2022-08-26T02:11:43;20.70;81.80
13332;DHT22;6735;51.456;12.626;2022-08-26T02:14:13;20.70;81.90
13332;DHT22;6735;51.456;12.626;2022-08-26T02:16:42;20.70;81.90
13332;DHT22;6735;51.456;12.626;2022-08-26T02:19:13;20.70;82.10
13332;DHT22;6735;51.456;12.626;2022-08-26T02:21:39;20.70;82.10
13332;DHT22;6735;51.456;12.626;2022-08-26T02:24:12;20.60;82.30
13332;DHT22;6735;51.456;12.626;2022-08-26T02:26:38;20.60;82.40
13332;DHT22;6735;51.456;12.626;2022-08-26T02:29:12;20.60;82.50
13332;DHT22;6735;51.456;12.626;2022-08-26T02:31:39;20.60;82.40
13332;DHT22;6735;51.456;12.626;2022-08-26T02:34:14;20.50;82.50
13332;DHT22;6735;51.456;12.626;2022-08-26T02:36:40;20.50;82.40
13332;DHT22;6735;51.456;12.626;2022-08-26T02:39:06;20.50;82.50
13332;DHT22;6735;51.456;12.626;2022-08-26T02:41:32;20.50;82.50
13332;DHT22;6735;51.456;12.626;2022-08-26T02:43:58;20.40;82.70
13332;DHT22;6735;51.456;12.626;2022-08-26T02:46:24;20.40;82.70
13332;DHT22;6735;51.456;12.626;2022-08-26T02:48:49;20.40;82.80
13332;DHT22;6735;51.456;12.626;2022-08-26T02:51:15;20.40;83.00
13332;DHT22;6735;51.456;12.626;2022-08-26T02:53:41;20.30;83.00
13332;DHT22;6735;51.456;12.626;2022-08-26T02:56:07;20.40;83.20
13332;DHT22;6735;51.456;12.626;2022-08-26T02:58:33;20.30;83.20
13332;DHT22;6735;51.456;12.626;2022-08-26T03:00:59;20.30;83.30
13332;DHT22;6735;51.456;12.626;2022-08-26T03:03:25;20.30;83.30
13332;DHT22;6735;51.456;12.626;2022-08-26T03:05:51;20.30;83.40
13332;DHT22;6735;51.456;12.626;2022-08-26T03:08:17;20.20;83.30
13332;DHT22;6735;51.456;12.626;2022-08-26T03:10:43;20.20;83.50
13332;DHT22;6735;51.456;12.626;2022-08-26T03:13:08;20.20;83.60
13332;DHT22;6735;51.456;12.626;2022-08-26T03:15:34;20.20;83.80
13332;DHT22;6735;51.456;12.626;2022-08-26T03:17:59;20.20;83.80
13332;DHT22;6735;51.456;12.626;2022-08-26T03:20:25;20.10;83.80
13332;DHT22;6735;51.456;12.626;2022-08-26T03:22:50;20.10;83.90
13332;DHT22;6735;51.456;12.626;2022-08-26T03:25:19;20.10;84.10
13332;DHT22;6735;51.456;12.626;2022-08-26T03:27:45;20.10;84.00
13332;DHT22;6735;51.456;12.626;2022-08-26T03:30:11;20.10;84.00
13332;DHT22;6735;51.456;12.626;2022-08-26T03:32:56;20.10;84.00
13332;DHT22;6735;51.456;12.626;2022-08-26T03:35:22;20.10;84.10
13332;DHT22;6735;51.456;12.626;2022-08-26T03:37:47;20.10;83.90
13332;DHT22;6735;51.456;12.626;2022-08-26T03:40:13;20.10;84.10
13332;DHT22;6735;51.456;12.626;2022-08-26T03:42:39;20.00;84.20
13332;DHT22;6735;51.456;12.626;2022-08-26T03:45:07;20.10;84.20
13332;DHT22;6735;51.456;12.626;2022-08-26T03:47:33;20.00;84.10
13332;DHT22;6735;51.456;12.626;2022-08-26T03:49:59;20.00;84.30
13332;DHT22;6735;51.456;12.626;2022-08-26T03:52:24;20.00;84.40
13332;DHT22;6735;51.456;12.626;2022-08-26T03:54:50;20.00;84.50
13332;DHT22;6735;51.456;12.626;2022-08-26T03:57:16;20.00;84.30
13332;DHT22;6735;51.456;12.626;2022-08-26T03:59:41;20.00;84.40
13332;DHT22;6735;51.456;12.626;2022-08-26T04:02:07;20.00;84.50
13332;DHT22;6735;51.456;12.626;2022-08-26T04:04:33;20.00;84.50
13332;DHT22;6735;51.456;12.626;2022-08-26T04:06:59;20.00;84.50
13332;DHT22;6735;51.456;12.626;2022-08-26T04:09:25;19.90;84.70
13332;DHT22;6735;51.456;12.626;2022-08-26T04:11:51;19.90;84.70
13332;DHT22;6735;51.456;12.626;2022-08-26T04:14:21;19.90;84.60
13332;DHT22;6735;51.456;12.626;2022-08-26T04:16:47;19.90;84.70
13332;DHT22;6735;51.456;12.626;2022-08-26T04:19:14;19.90;84.70
13332;DHT22;6735;51.456;12.626;2022-08-26T04:21:41;19.90;84.60
13332;DHT22;6735;51.456;12.626;2022-08-26T04:24:10;19.90;84.60
13332;DHT22;6735;51.456;12.626;2022-08-26T04:26:36;19.90;84.60
13332;DHT22;6735;51.456;12.626;2022-08-26T04:29:09;20.00;84.60
13332;DHT22;6735;51.456;12.626;2022-08-26T04:31:36;20.00;84.60
13332;DHT22;6735;51.456;12.626;2022-08-26T04:34:02;20.00;84.50
13332;DHT22;6735;51.456;12.626;2022-08-26T04:36:28;20.10;84.50
13332;DHT22;6735;51.456;12.626;2022-08-26T04:38:54;20.10;84.40
13332;DHT22;6735;51.456;12.626;2022-08-26T04:41:20;20.10;84.40
13332;DHT22;6735;51.456;12.626;2022-08-26T04:43:46;20.20;84.30
13332;DHT22;6735;51.456;12.626;2022-08-26T04:46:16;20.20;84.20
13332;DHT22;6735;51.456;12.626;2022-08-26T04:48:42;20.20;84.20
13332;DHT22;6735;51.456;12.626;2022-08-26T04:51:08;20.30;84.10
13332;DHT22;6735;51.456;12.626;2022-08-26T04:53:34;20.40;84.10
13332;DHT22;6735;51.456;12.626;2022-08-26T04:55:59;20.50;84.00
13332;DHT22;6735;51.456;12.626;2022-08-26T04:58:25;20.50;83.80
13332;DHT22;6735;51.456;12.626;2022-08-26T05:00:52;20.60;83.70
13332;DHT22;6735;51.456;12.626;2022-08-26T05:03:18;20.70;83.60
13332;DHT22;6735;51.456;12.626;2022-08-26T05:05:45;20.70;83.40
13332;DHT22;6735;51.456;12.626;2022-08-26T05:08:13;20.80;83.30
13332;DHT22;6735;51.456;12.626;2022-08-26T05:10:44;20.90;83.20
13332;DHT22;6735;51.456;12.626;2022-08-26T05:13:12;21.00;82.90
13332;DHT22;6735;51.456;12.626;2022-08-26T05:15:38;21.10;82.80
13332;DHT22;6735;51.456;12.626;2022-08-26T05:18:05;21.20;82.60
13332;DHT22;6735;51.456;12.626;2022-08-26T05:20:31;21.40;82.40
13332;DHT22;6735;51.456;12.626;2022-08-26T05:22:58;21.40;82.30
13332;DHT22;6735;51.456;12.626;2022-08-26T05:25:26;21.60;82.00
13332;DHT22;6735;51.456;12.626;2022-08-26T05:27:51;21.80;81.60
13332;DHT22;6735;51.456;12.626;2022-08-26T05:30:17;22.40;80.40
13332;DHT22;6735;51.456;12.626;2022-08-26T05:32:42;23.10;78.50
13332;DHT22;6735;51.456;12.626;2022-08-26T05:35:08;23.60;77.20
13332;DHT22;6735;51.456;12.626;2022-08-26T05:37:35;23.80;76.70
13332;DHT22;6735;51.456;12.626;2022-08-26T05:40:03;23.70;76.70
13332;DHT22;6735;51.456;12.626;2022-08-26T05:42:28;24.00;76.20
13332;DHT22;6735;51.456;12.626;2022-08-26T05:44:54;24.50;74.70
13332;DHT22;6735;51.456;12.626;2022-08-26T05:47:19;25.10;73.00
13332;DHT22;6735;51.456;12.626;2022-08-26T05:49:45;25.70;71.60
13332;DHT22;6735;51.456;12.626;2022-08-26T05:52:10;26.20;70.10
13332;DHT22;6735;51.456;12.626;2022-08-26T05:54:38;26.60;69.10
13332;DHT22;6735;51.456;12.626;2022-08-26T05:57:03;26.80;68.40
13332;DHT22;6735;51.456;12.626;2022-08-26T05:59:29;27.20;67.40
13332;DHT22;6735;51.456;12.626;2022-08-26T06:01:54;27.30;66.80
13332;DHT22;6735;51.456;12.626;2022-08-26T06:04:21;27.50;65.90
13332;DHT22;6735;51.456;12.626;2022-08-26T06:06:46;27.80;65.40
13332;DHT22;6735;51.456;12.626;2022-08-26T06:09:12;28.00;64.90
13332;DHT22;6735;51.456;12.626;2022-08-26T06:11:38;28.10;64.30
13332;DHT22;6735;51.456;12.626;2022-08-26T06:14:05;28.50;63.10
13332;DHT22;6735;51.456;12.626;2022-08-26T06:16:35;28.60;61.70
13332;DHT22;6735;51.456;12.626;2022-08-26T06:19:03;28.70;62.00
13332;DHT22;6735;51.456;12.626;2022-08-26T06:21:31;29.00;61.50
13332;DHT22;6735;51.456;12.626;2022-08-26T06:24:01;29.20;60.60
13332;DHT22;6735;51.456;12.626;2022-08-26T06:26:50;29.30;60.10
13332;DHT22;6735;51.456;12.626;2022-08-26T06:29:18;29.40;59.60
13332;DHT22;6735;51.456;12.626;2022-08-26T06:31:44;29.40;59.50
13332;DHT22;6735;51.456;12.626;2022-08-26T06:34:10;29.60;59.10
13332;DHT22;6735;51.456;12.626;2022-08-26T06:36:36;29.90;57.80
13332;DHT22;6735;51.456;12.626;2022-08-26T06:39:05;29.60;58.80
13332;DHT22;6735;51.456;12.626;2022-08-26T06:41:31;29.70;58.00
13332;DHT22;6735;51.456;12.626;2022-08-26T06:43:58;29.90;57.90
13332;DHT22;6735;51.456;12.626;2022-08-26T06:46:25;30.20;56.60
13332;DHT22;6735;51.456;12.626;2022-08-26T06:48:52;30.30;56.70
13332;DHT22;6735;51.456;12.626;2022-08-26T06:51:20;29.90;57.00
13332;DHT22;6735;51.456;12.626;2022-08-26T06:53:47;29.00;59.10
13332;DHT22;6735;51.456;12.626;2022-08-26T06:56:16;28.60;60.00
13332;DHT22;6735;51.456;12.626;2022-08-26T06:58:42;28.30;60.50
13332;DHT22;6735;51.456;12.626;2022-08-26T07:03:48;27.70;62.10
13332;DHT22;6735;51.456;12.626;2022-08-26T07:06:14;27.70;62.00
13332;DHT22;6735;51.456;12.626;2022-08-26T07:08:40;27.80;61.90
13332;DHT22;6735;51.456;12.626;2022-08-26T07:11:07;27.70;62.00
13332;DHT22;6735;51.456;12.626;2022-08-26T07:13:33;27.50;62.60
13332;DHT22;6735;51.456;12.626;2022-08-26T07:16:10;27.70;62.30
13332;DHT22;6735;51.456;12.626;2022-08-26T07:18:38;28.20;61.40
13332;DHT22;6735;51.456;12.626;2022-08-26T07:21:06;28.70;60.30
13332;DHT22;6735;51.456;12.626;2022-08-26T07:23:33;29.20;59.50
13332;DHT22;6735;51.456;12.626;2022-08-26T07:26:03;29.70;58.40
13332;DHT22;6735;51.456;12.626;2022-08-26T07:28:28;30.20;57.20
13332;DHT22;6735;51.456;12.626;2022-08-26T07:30:54;30.50;57.00
13332;DHT22;6735;51.456;12.626;2022-08-26T07:33:19;30.70;56.30
13332;DHT22;6735;51.456;12.626;2022-08-26T07:35:45;30.90;56.10
13332;DHT22;6735;51.456;12.626;2022-08-26T07:38:11;31.10;55.60
13332;DHT22;6735;51.456;12.626;2022-08-26T07:40:37;31.20;55.40
13332;DHT22;6735;51.456;12.626;2022-08-26T07:43:02;31.50;54.70
13332;DHT22;6735;51.456;12.626;2022-08-26T07:45:28;31.50;54.30
13332;DHT22;6735;51.456;12.626;2022-08-26T07:47:54;31.60;54.20
13332;DHT22;6735;51.456;12.626;2022-08-26T07:50:19;31.70;54.00
13332;DHT22;6735;51.456;12.626;2022-08-26T07:52:47;31.70;53.90
13332;DHT22;6735;51.456;12.626;2022-08-26T07:55:12;31.90;53.10
13332;DHT22;6735;51.456;12.626;2022-08-26T07:57:38;31.80;53.30
13332;DHT22;6735;51.456;12.626;2022-08-26T08:00:08;31.70;53.50
13332;DHT22;6735;51.456;12.626;2022-08-26T08:02:34;32.00;52.50
13332;DHT22;6735;51.456;12.626;2022-08-26T08:05:00;32.00;52.20
13332;DHT22;6735;51.456;12.626;2022-08-26T08:07:29;32.10;52.10
13332;DHT22;6735;51.456;12.626;2022-08-26T08:09:55;32.30;51.40
13332;DHT22;6735;51.456;12.626;2022-08-26T08:12:21;32.30;51.20
13332;DHT22;6735;51.456;12.626;2022-08-26T08:14:47;32.40;51.20
13332;DHT22;6735;51.456;12.626;2022-08-26T08:17:13;32.30;51.00
13332;DHT22;6735;51.456;12.626;2022-08-26T08:19:39;32.20;51.10
13332;DHT22;6735;51.456;12.626;2022-08-26T08:22:05;32.40;50.80
13332;DHT22;6735;51.456;12.626;2022-08-26T08:24:31;32.50;50.10
13332;DHT22;6735;51.456;12.626;2022-08-26T08:27:00;32.60;49.80
13332;DHT22;6735;51.456;12.626;2022-08-26T08:29:26;32.20;50.40
13332;DHT22;6735;51.456;12.626;2022-08-26T08:31:54;31.90;50.90
13332;DHT22;6735;51.456;12.626;2022-08-26T08:34:20;31.70;50.60
13332;DHT22;6735;51.456;12.626;2022-08-26T08:36:46;31.40;51.80
13332;DHT22;6735;51.456;12.626;2022-08-26T08:39:11;31.50;51.60
13332;DHT22;6735;51.456;12.626;2022-08-26T08:41:49;31.90;50.70
13332;DHT22;6735;51.456;12.626;2022-08-26T08:44:21;31.80;50.70
13332;DHT22;6735;51.456;12.626;2022-08-26T08:46:50;31.80;51.20
13332;DHT22;6735;51.456;12.626;2022-08-26T08:49:17;32.20;50.10
13332;DHT22;6735;51.456;12.626;2022-08-26T08:51:51;32.20;50.20
13332;DHT22;6735;51.456;12.626;2022-08-26T08:54:18;32.30;49.80
13332;DHT22;6735;51.456;12.626;2022-08-26T08:56:50;32.20;50.10
13332;DHT22;6735;51.456;12.626;2022-08-26T08:59:30;32.30;50.10
13332;DHT22;6735;51.456;12.626;2022-08-26T09:05:02;32.70;49.10
13332;DHT22;6735;51.456;12.626;2022-08-26T09:07:38;32.80;49.00
13332;DHT22;6735;51.456;12.626;2022-08-26T09:12:32;33.00;48.60
13332;DHT22;6735;51.456;12.626;2022-08-26T09:15:16;32.90;48.40
13332;DHT22;6735;51.456;12.626;2022-08-26T09:17:53;32.90;48.10
13332;DHT22;6735;51.456;12.626;2022-08-26T09:20:54;32.60;48.30
13332;DHT22;6735;51.456;12.626;2022-08-26T09:23:21;32.50;49.30
13332;DHT22;6735;51.456;12.626;2022-08-26T09:25:50;32.70;49.10
13332;DHT22;6735;51.456;12.626;2022-08-26T09:28:20;33.00;48.40
13332;DHT22;6735;51.456;12.626;2022-08-26T09:31:18;33.00;48.30
13332;DHT22;6735;51.456;12.626;2022-08-26T09:33:42;33.20;47.20
13332;DHT22;6735;51.456;12.626;2022-08-26T09:36:17;33.40;47.40
13332;DHT22;6735;51.456;12.626;2022-08-26T09:38:48;33.40;47.30
13332;DHT22;6735;51.456;12.626;2022-08-26T09:41:33;33.30;47.30
13332;DHT22;6735;51.456;12.626;2022-08-26T09:44:17;33.20;46.10
13332;DHT22;6735;51.456;12.626;2022-08-26T09:46:55;33.20;46.30
13332;DHT22;6735;51.456;12.626;2022-08-26T09:49:26;33.20;46.90
13332;DHT22;6735;51.456;12.626;2022-08-26T09:54:36;33.70;45.30
13332;DHT22;6735;51.456;12.626;2022-08-26T09:57:16;33.40;46.00
13332;DHT22;6735;51.456;12.626;2022-08-26T09:59:42;33.00;46.30
13332;DHT22;6735;51.456;12.626;2022-08-26T10:04:52;33.00;46.10
13332;DHT22;6735;51.456;12.626;2022-08-26T10:07:38;33.30;45.80
13332;DHT22;6735;51.456;12.626;2022-08-26T10:10:24;33.40;45.20
13332;DHT22;6735;51.456;12.626;2022-08-26T10:13:14;33.30;45.90
13332;DHT22;6735;51.456;12.626;2022-08-26T10:15:58;33.50;43.90
13332;DHT22;6735;51.456;12.626;2022-08-26T10:18:29;33.60;45.00
13332;DHT22;6735;51.456;12.626;2022-08-26T10:21:18;33.60;44.90
13332;DHT22;6735;51.456;12.626;2022-08-26T10:23:49;33.50;44.40
13332;DHT22;6735;51.456;12.626;2022-08-26T10:26:38;33.80;44.50
13332;DHT22;6735;51.456;12.626;2022-08-26T10:29:15;33.80;44.30
13332;DHT22;6735;51.456;12.626;2022-08-26T10:31:48;34.10;44.20
13332;DHT22;6735;51.456;12.626;2022-08-26T10:34:16;34.20;44.20
13332;DHT22;6735;51.456;12.626;2022-08-26T10:36:54;34.30;43.90
13332;DHT22;6735;51.456;12.626;2022-08-26T10:39:31;34.20;43.50
13332;DHT22;6735;51.456;12.626;2022-08-26T10:42:03;34.20;43.30
13332;DHT22;6735;51.456;12.626;2022-08-26T10:44:33;34.20;43.70
13332;DHT22;6735;51.456;12.626;2022-08-26T10:47:08;34.40;43.60
13332;DHT22;6735;51.456;12.626;2022-08-26T10:49:37;34.60;42.60
13332;DHT22;6735;51.456;12.626;2022-08-26T10:52:09;34.30;43.90
13332;DHT22;6735;51.456;12.626;2022-08-26T10:54:51;34.20;43.80
13332;DHT22;6735;51.456;12.626;2022-08-26T11:00:17;33.40;44.40
13332;DHT22;6735;51.456;12.626;2022-08-26T11:03:11;32.50;46.20
13332;DHT22;6735;51.456;12.626;2022-08-26T11:05:40;32.70;46.00
13332;DHT22;6735;51.456;12.626;2022-08-26T11:08:32;33.00;45.60
13332;DHT22;6735;51.456;12.626;2022-08-26T11:10:59;33.70;44.50
13332;DHT22;6735;51.456;12.626;2022-08-26T11:16:45;34.10;42.50
13332;DHT22;6735;51.456;12.626;2022-08-26T11:22:26;33.80;43.80
13332;DHT22;6735;51.456;12.626;2022-08-26T11:30:07;32.80;41.80
13332;DHT22;6735;51.456;12.626;2022-08-26T11:35:10;32.00;43.90
13332;DHT22;6735;51.456;12.626;2022-08-26T11:37:45;31.20;44.70
13332;DHT22;6735;51.456;12.626;2022-08-26T11:40:15;30.80;45.50
13332;DHT22;6735;51.456;12.626;2022-08-26T11:42:43;30.60;45.00
13332;DHT22;6735;51.456;12.626;2022-08-26T11:45:17;30.40;45.00
13332;DHT22;6735;51.456;12.626;2022-08-26T11:47:43;30.10;45.50
13332;DHT22;6735;51.456;12.626;2022-08-26T11:50:12;29.90;45.80
13332;DHT22;6735;51.456;12.626;2022-08-26T11:52:38;29.70;46.30
13332;DHT22;6735;51.456;12.626;2022-08-26T11:55:10;29.50;47.20
13332;DHT22;6735;51.456;12.626;2022-08-26T11:57:48;29.40;47.50
13332;DHT22;6735;51.456;12.626;2022-08-26T12:00:26;29.20;49.40
13332;DHT22;6735;51.456;12.626;2022-08-26T12:02:52;29.00;49.50
13332;DHT22;6735;51.456;12.626;2022-08-26T12:05:23;28.70;50.10
13332;DHT22;6735;51.456;12.626;2022-08-26T12:07:50;28.70;51.30
13332;DHT22;6735;51.456;12.626;2022-08-26T12:10:29;28.60;52.00
13332;DHT22;6735;51.456;12.626;2022-08-26T12:12:57;28.20;54.30
13332;DHT22;6735;51.456;12.626;2022-08-26T12:15:23;27.90;54.10
13332;DHT22;6735;51.456;12.626;2022-08-26T12:17:49;27.70;55.10
13332;DHT22;6735;51.456;12.626;2022-08-26T12:22:54;27.20;57.50
13332;DHT22;6735;51.456;12.626;2022-08-26T12:25:22;27.00;56.80
13332;DHT22;6735;51.456;12.626;2022-08-26T12:27:49;26.80;57.70
13332;DHT22;6735;51.456;12.626;2022-08-26T12:30:19;26.70;57.60
13332;DHT22;6735;51.456;12.626;2022-08-26T12:33:02;26.60;58.40
13332;DHT22;6735;51.456;12.626;2022-08-26T12:35:29;26.60;58.10
13332;DHT22;6735;51.456;12.626;2022-08-26T12:37:56;26.60;57.90
13332;DHT22;6735;51.456;12.626;2022-08-26T12:40:43;26.60;57.90
13332;DHT22;6735;51.456;12.626;2022-08-26T12:43:10;26.60;58.90
13332;DHT22;6735;51.456;12.626;2022-08-26T12:48:21;26.30;58.60
13332;DHT22;6735;51.456;12.626;2022-08-26T12:50:50;26.10;59.10
13332;DHT22;6735;51.456;12.626;2022-08-26T12:53:28;26.00;58.70
13332;DHT22;6735;51.456;12.626;2022-08-26T12:56:03;26.00;58.80
13332;DHT22;6735;51.456;12.626;2022-08-26T12:58:34;26.00;59.10
13332;DHT22;6735;51.456;12.626;2022-08-26T13:13:51;25.70;61.60
13332;DHT22;6735;51.456;12.626;2022-08-26T13:16:18;25.70;61.30
13332;DHT22;6735;51.456;12.626;2022-08-26T13:18:47;25.70;61.20
13332;DHT22;6735;51.456;12.626;2022-08-26T13:21:18;25.70;61.50
13332;DHT22;6735;51.456;12.626;2022-08-26T13:23:44;25.70;62.50
13332;DHT22;6735;51.456;12.626;2022-08-26T13:26:10;25.70;62.70
13332;DHT22;6735;51.456;12.626;2022-08-26T13:28:36;25.70;62.90
13332;DHT22;6735;51.456;12.626;2022-08-26T13:31:02;25.80;63.00
13332;DHT22;6735;51.456;12.626;2022-08-26T13:33:29;25.90;63.00
13332;DHT22;6735;51.456;12.626;2022-08-26T13:35:55;26.00;63.10
13332;DHT22;6735;51.456;12.626;2022-08-26T13:38:20;26.00;63.20
13332;DHT22;6735;51.456;12.626;2022-08-26T13:40:46;26.00;63.90
13332;DHT22;6735;51.456;12.626;2022-08-26T13:43:12;25.90;64.20
13332;DHT22;6735;51.456;12.626;2022-08-26T13:45:37;26.00;64.80
13332;DHT22;6735;51.456;12.626;2022-08-26T13:48:05;26.20;64.50
13332;DHT22;6735;51.456;12.626;2022-08-26T13:50:31;26.20;64.80
13332;DHT22;6735;51.456;12.626;2022-08-26T13:52:58;26.50;65.00
13332;DHT22;6735;51.456;12.626;2022-08-26T13:55:23;26.50;65.10
13332;DHT22;6735;51.456;12.626;2022-08-26T13:57:49;26.60;65.60
13332;DHT22;6735;51.456;12.626;2022-08-26T14:00:15;26.70;65.90
13332;DHT22;6735;51.456;12.626;2022-08-26T14:02:40;26.70;66.10
13332;DHT22;6735;51.456;12.626;2022-08-26T14:05:06;26.70;66.10
13332;DHT22;6735;51.456;12.626;2022-08-26T14:07:32;26.70;66.20
13332;DHT22;6735;51.456;12.626;2022-08-26T14:09:57;26.70;66.30
13332;DHT22;6735;51.456;12.626;2022-08-26T14:12:23;26.70;66.30
13332;DHT22;6735;51.456;12.626;2022-08-26T14:14:49;26.70;66.10
13332;DHT22;6735;51.456;12.626;2022-08-26T14:17:19;26.70;66.10
13332;DHT22;6735;51.456;12.626;2022-08-26T14:19:47;26.70;65.90
13332;DHT22;6735;51.456;12.626;2022-08-26T14:22:15;26.90;65.50
13332;DHT22;6735;51.456;12.626;2022-08-26T14:24:41;27.00;65.40
13332;DHT22;6735;51.456;12.626;2022-08-26T14:27:07;26.80;66.00
13332;DHT22;6735;51.456;12.626;2022-08-26T14:29:32;26.80;66.00
13332;DHT22;6735;51.456;12.626;2022-08-26T14:32:00;26.90;65.50
13332;DHT22;6735;51.456;12.626;2022-08-26T14:34:26;26.80;65.50
13332;DHT22;6735;51.456;12.626;2022-08-26T14:36:52;26.80;65.80
13332;DHT22;6735;51.456;12.626;2022-08-26T14:39:17;26.70;66.20
13332;DHT22;6735;51.456;12.626;2022-08-26T14:41:46;26.80;66.10
13332;DHT22;6735;51.456;12.626;2022-08-26T14:44:14;26.70;66.60
13332;DHT22;6735;51.456;12.626;2022-08-26T14:46:44;26.60;66.70
13332;DHT22;6735;51.456;12.626;2022-08-26T14:49:11;26.60;66.70
13332;DHT22;6735;51.456;12.626;2022-08-26T14:51:38;26.60;66.30
13332;DHT22;6735;51.456;12.626;2022-08-26T14:54:03;26.50;66.00
13332;DHT22;6735;51.456;12.626;2022-08-26T14:57:00;26.40;66.10
13332;DHT22;6735;51.456;12.626;2022-08-26T14:59:42;26.10;65.70
13332;DHT22;6735;51.456;12.626;2022-08-26T15:02:10;26.30;65.40
13332;DHT22;6735;51.456;12.626;2022-08-26T15:04:36;26.40;65.00
13332;DHT22;6735;51.456;12.626;2022-08-26T15:07:03;26.40;64.20
13332;DHT22;6735;51.456;12.626;2022-08-26T15:09:31;26.40;64.20
13332;DHT22;6735;51.456;12.626;2022-08-26T15:11:57;26.50;64.10
13332;DHT22;6735;51.456;12.626;2022-08-26T15:14:23;26.60;63.90
13332;DHT22;6735;51.456;12.626;2022-08-26T15:16:52;26.50;63.60
13332;DHT22;6735;51.456;12.626;2022-08-26T15:19:18;26.50;63.60
13332;DHT22;6735;51.456;12.626;2022-08-26T15:21:45;26.60;63.30
13332;DHT22;6735;51.456;12.626;2022-08-26T15:24:12;26.70;63.20
13332;DHT22;6735;51.456;12.626;2022-08-26T15:26:39;26.70;63.40
13332;DHT22;6735;51.456;12.626;2022-08-26T15:29:05;26.60;63.40
13332;DHT22;6735;51.456;12.626;2022-08-26T15:31:31;26.60;63.60
13332;DHT22;6735;51.456;12.626;2022-08-26T15:33:58;26.60;63.60
13332;DHT22;6735;51.456;12.626;2022-08-26T15:36:26;26.60;64.10
13332;DHT22;6735;51.456;12.626;2022-08-26T15:38:51;26.50;64.20
13332;DHT22;6735;51.456;12.626;2022-08-26T15:41:17;26.60;63.90
13332;DHT22;6735;51.456;12.626;2022-08-26T15:43:42;26.50;63.90
13332;DHT22;6735;51.456;12.626;2022-08-26T15:46:11;26.50;63.90
13332;DHT22;6735;51.456;12.626;2022-08-26T15:48:37;26.60;63.60
13332;DHT22;6735;51.456;12.626;2022-08-26T15:51:05;26.60;63.50
13332;DHT22;6735;51.456;12.626;2022-08-26T15:53:32;26.60;63.30
13332;DHT22;6735;51.456;12.626;2022-08-26T15:55:59;26.60;63.20
13332;DHT22;6735;51.456;12.626;2022-08-26T15:58:25;26.50;63.10
13332;DHT22;6735;51.456;12.626;2022-08-26T16:00:51;26.40;63.30
13332;DHT22;6735;51.456;12.626;2022-08-26T16:03:18;26.50;63.20
13332;DHT22;6735;51.456;12.626;2022-08-26T16:05:44;26.60;63.00
13332;DHT22;6735;51.456;12.626;2022-08-26T16:08:10;26.70;62.80
13332;DHT22;6735;51.456;12.626;2022-08-26T16:10:39;26.70;62.90
13332;DHT22;6735;51.456;12.626;2022-08-26T16:13:05;26.60;62.90
13332;DHT22;6735;51.456;12.626;2022-08-26T16:15:35;26.60;63.00
13332;DHT22;6735;51.456;12.626;2022-08-26T16:18:03;26.50;62.90
13332;DHT22;6735;51.456;12.626;2022-08-26T16:20:30;26.60;63.00
13332;DHT22;6735;51.456;12.626;2022-08-26T16:22:57;26.50;63.00
13332;DHT22;6735;51.456;12.626;2022-08-26T16:25:23;26.50;63.10
13332;DHT22;6735;51.456;12.626;2022-08-26T16:27:49;26.50;63.00
13332;DHT22;6735;51.456;12.626;2022-08-26T16:30:16;26.40;63.30